TimeCDT,TemperatureF,Dew PointF,Humidity,Sea Level PressureIn,VisibilityMPH,Wind Direction,Wind SpeedMPH,Gust SpeedMPH,PrecipitationIn,Events,Conditions,WindDirDegrees,DateUTC
12:15 AM,75.0,50.5,42,30.09,10.0,South,9.2,-,N/A,,Clear,170,2013-07-07 05:15:00
12:35 AM,74.3,50.5,43,30.09,10.0,SSE,8.1,-,N/A,,Clear,160,2013-07-07 05:35:00
12:55 AM,73.4,50.5,45,30.09,10.0,Calm,Calm,-,N/A,,Clear,0,2013-07-07 05:55:00
1:15 AM,73.0,50.4,45,30.08,10.0,South,5.8,-,N/A,,Clear,170,2013-07-07 06:15:00
1:35 AM,71.4,50.4,47,30.08,10.0,South,4.6,-,N/A,,Clear,180,2013-07-07 06:35:00
1:55 AM,70.9,50.4,48,30.08,10.0,South,3.5,-,N/A,,Clear,180,2013-07-07 06:55:00
2:15 AM,71.4,50.2,47,30.07,10.0,SSE,4.6,-,N/A,,Clear,150,2013-07-07 07:15:00
2:35 AM,71.2,50.7,48,30.07,10.0,South,4.6,-,N/A,,Clear,170,2013-07-07 07:35:00
2:55 AM,71.4,51.1,49,30.07,10.0,South,9.2,-,N/A,,Clear,170,2013-07-07 07:55:00
3:15 AM,70.7,50.9,49,30.07,10.0,South,11.5,-,N/A,,Clear,170,2013-07-07 08:15:00
3:35 AM,70.9,50.5,48,30.07,10.0,South,8.1,-,N/A,,Clear,190,2013-07-07 08:35:00
3:55 AM,70.7,50.7,49,30.07,10.0,SSW,5.8,-,N/A,,Clear,200,2013-07-07 08:55:00
4:15 AM,68.4,50.5,53,30.08,10.0,SW,6.9,-,N/A,,Clear,220,2013-07-07 09:15:00
4:35 AM,68.5,50.4,52,30.07,10.0,SW,5.8,-,N/A,,Clear,220,2013-07-07 09:35:00
4:55 AM,68.0,50.4,53,30.07,10.0,SSW,5.8,-,N/A,,Clear,200,2013-07-07 09:55:00
5:15 AM,68.2,50.4,53,30.08,10.0,SSW,4.6,-,N/A,,Clear,210,2013-07-07 10:15:00
5:35 AM,66.4,50.5,57,30.07,10.0,SSW,5.8,-,N/A,,Clear,210,2013-07-07 10:35:00
5:55 AM,66.6,50.4,56,30.07,10.0,South,6.9,-,N/A,,Clear,190,2013-07-07 10:55:00
6:15 AM,66.9,50.4,55,30.08,10.0,WSW,4.6,-,N/A,,Clear,240,2013-07-07 11:15:00
6:35 AM,65.5,50.4,58,30.08,10.0,SSW,6.9,-,N/A,,Clear,210,2013-07-07 11:35:00
6:55 AM,66.4,50.4,56,30.09,10.0,South,3.5,-,N/A,,Clear,170,2013-07-07 11:55:00
7:15 AM,68.2,50.2,53,30.10,10.0,SSW,3.5,-,N/A,,Clear,210,2013-07-07 12:15:00
7:35 AM,68.0,50.0,52,30.11,10.0,Calm,Calm,-,N/A,,Clear,0,2013-07-07 12:35:00
7:55 AM,69.3,50.7,52,30.12,10.0,Calm,Calm,-,N/A,,Clear,0,2013-07-07 12:55:00
8:15 AM,71.2,50.5,48,30.13,10.0,Calm,Calm,-,N/A,,Clear,0,2013-07-07 13:15:00
8:35 AM,72.5,50.2,45,30.14,10.0,South,4.6,-,N/A,,Clear,170,2013-07-07 13:35:00
8:55 AM,73.6,50.2,44,30.15,10.0,Calm,Calm,-,N/A,,Clear,0,2013-07-07 13:55:00
9:15 AM,75.4,50.7,42,30.16,10.0,South,8.1,-,N/A,,Clear,180,2013-07-07 14:15:00
9:35 AM,76.5,50.9,41,30.17,10.0,South,9.2,-,N/A,,Clear,180,2013-07-07 14:35:00
9:55 AM,77.2,50.7,39,30.17,10.0,SSE,8.1,-,N/A,,Clear,160,2013-07-07 14:55:00
10:15 AM,78.6,50.9,38,30.16,10.0,SE,8.1,-,N/A,,Clear,130,2013-07-07 15:15:00
10:35 AM,80.1,50.7,36,30.16,10.0,South,8.1,-,N/A,,Clear,170,2013-07-07 15:35:00
10:55 AM,81.0,50.4,34,30.16,10.0,ESE,10.4,-,N/A,,Clear,120,2013-07-07 15:55:00
11:15 AM,81.9,50.5,34,30.15,10.0,SSE,10.4,-,N/A,,Clear,150,2013-07-07 16:15:00
11:35 AM,82.6,50.9,33,30.15,10.0,SE,10.4,-,N/A,,Clear,130,2013-07-07 16:35:00
11:55 AM,83.3,50.9,32,30.15,10.0,SE,4.6,-,N/A,,Clear,130,2013-07-07 16:55:00
12:15 PM,84.4,51.6,32,30.14,10.0,SSE,8.1,-,N/A,,Clear,150,2013-07-07 17:15:00
12:35 PM,83.7,50.9,32,30.14,10.0,East,5.8,-,N/A,,Clear,100,2013-07-07 17:35:00
12:55 PM,85.3,50.7,30,30.14,10.0,South,5.8,-,N/A,,Clear,180,2013-07-07 17:55:00
1:15 PM,85.8,49.5,28,30.13,10.0,SSW,6.9,-,N/A,,Clear,210,2013-07-07 18:15:00
1:35 PM,86.2,49.6,28,30.13,10.0,SSE,3.5,-,N/A,,Clear,150,2013-07-07 18:35:00
1:55 PM,86.9,50.5,28,30.12,10.0,Calm,Calm,-,N/A,,Clear,0,2013-07-07 18:55:00
2:15 PM,88.0,50.9,28,30.12,10.0,South,3.5,-,N/A,,Clear,180,2013-07-07 19:15:00
2:35 PM,89.4,49.8,26,30.12,10.0,SE,11.5,23.0,N/A,,Clear,130,2013-07-07 19:35:00
2:55 PM,89.6,49.1,25,30.11,10.0,East,13.8,17.3,N/A,,Clear,90,2013-07-07 19:55:00
3:15 PM,90.5,47.8,23,30.11,10.0,East,9.2,-,N/A,,Clear,90,2013-07-07 20:15:00
3:35 PM,90.1,46.8,22,30.11,10.0,ESE,5.8,-,N/A,,Clear,110,2013-07-07 20:35:00
3:55 PM,90.7,47.7,23,30.10,10.0,ESE,9.2,16.1,N/A,,Clear,120,2013-07-07 20:55:00
4:15 PM,90.5,46.2,22,30.09,10.0,ESE,8.1,17.3,N/A,,Clear,120,2013-07-07 21:15:00
4:35 PM,90.9,46.2,21,30.09,10.0,ESE,9.2,17.3,N/A,,Clear,110,2013-07-07 21:35:00
4:55 PM,89.8,47.5,23,30.09,10.0,SE,11.5,-,N/A,,Clear,140,2013-07-07 21:55:00
5:15 PM,90.9,48.4,23,30.08,10.0,East,15.0,19.6,N/A,,Clear,100,2013-07-07 22:15:00
5:35 PM,89.8,48.0,24,30.08,10.0,ESE,11.5,17.3,N/A,,Clear,110,2013-07-07 22:35:00
5:55 PM,89.4,48.4,24,30.08,10.0,ESE,9.2,-,N/A,,Clear,110,2013-07-07 22:55:00
6:15 PM,89.2,50.0,26,30.08,10.0,East,13.8,-,N/A,,Clear,90,2013-07-07 23:15:00
6:35 PM,88.3,50.9,28,30.07,10.0,ESE,13.8,18.4,N/A,,Clear,110,2013-07-07 23:35:00
6:55 PM,87.4,50.2,28,30.08,10.0,ESE,10.4,-,N/A,,Clear,110,2013-07-07 23:55:00
7:15 PM,86.5,50.0,28,30.08,10.0,ESE,16.1,-,N/A,,Clear,110,2013-07-08 00:15:00
7:35 PM,85.6,50.0,29,30.08,10.0,ESE,13.8,18.4,N/A,,Clear,110,2013-07-08 00:35:00
7:55 PM,84.4,50.4,31,30.09,10.0,ESE,13.8,19.6,N/A,,Clear,120,2013-07-08 00:55:00
8:15 PM,83.5,49.6,31,30.09,10.0,ESE,15.0,-,N/A,,Clear,120,2013-07-08 01:15:00
8:35 PM,82.2,50.7,33,30.11,10.0,SE,15.0,-,N/A,,Clear,130,2013-07-08 01:35:00
8:55 PM,80.8,51.8,36,30.11,10.0,ESE,13.8,18.4,N/A,,Clear,110,2013-07-08 01:55:00
9:15 PM,79.9,52.9,39,30.12,10.0,ESE,12.7,-,N/A,,Clear,120,2013-07-08 02:15:00
9:35 PM,79.2,53.8,41,30.13,10.0,ESE,12.7,21.9,N/A,,Clear,110,2013-07-08 02:35:00
9:55 PM,78.1,54.1,43,30.15,10.0,ESE,8.1,-,N/A,,Clear,120,2013-07-08 02:55:00
10:15 PM,77.5,54.9,45,30.15,10.0,ESE,12.7,-,N/A,,Clear,120,2013-07-08 03:15:00
10:35 PM,77.0,55.4,47,30.15,10.0,ESE,11.5,19.6,N/A,,Clear,110,2013-07-08 03:35:00
10:55 PM,76.3,56.3,50,30.16,10.0,ESE,13.8,21.9,N/A,,Clear,120,2013-07-08 03:55:00
11:15 PM,75.6,56.7,52,30.16,10.0,SE,9.2,18.4,N/A,,Clear,130,2013-07-08 04:15:00
11:35 PM,75.2,56.7,52,30.17,10.0,SE,5.8,-,N/A,,Clear,140,2013-07-08 04:35:00
11:55 PM,74.8,57.2,54,30.17,10.0,SE,9.2,-,N/A,,Clear,130,2013-07-08 04:55:00